Time;durP1;ratioP1;P1;durP2;ratioP2;P2;SDS_P1;SDS_P2;PMS_P1;PMS_P2;Temp;Humidity;BMP_temperature;BMP_pressure;BME280_temperature;BME280_humidity;BME280_pressure;Samples;Min_cycle;Max_cycle;Signal;HPM_P1;HPM_P2
2023/06/27 00:00:21;;;;;;;3.87;3.07;;;18.00;1.00;;;;;;5015165;28;20195;-70
2023/06/27 00:02:47;;;;;;;2.90;2.70;;;18.00;1.00;;;;;;5015839;28;20230;-70
2023/06/27 00:05:13;;;;;;;3.50;3.20;;;18.00;1.00;;;;;;5014400;28;20273;-71
2023/06/27 00:07:41;;;;;;;3.33;3.07;;;17.90;1.00;;;;;;5015001;28;20231;-70
2023/06/27 00:10:08;;;;;;;5.17;3.00;;;17.90;1.00;;;;;;5016719;28;20415;-70
2023/06/27 00:12:34;;;;;;;6.20;3.60;;;17.90;1.00;;;;;;5015432;28;20442;-70
2023/06/27 00:15:00;;;;;;;3.10;2.83;;;17.90;1.00;;;;;;5016649;28;20407;-70
2023/06/27 00:17:25;;;;;;;3.67;3.27;;;17.80;1.00;;;;;;5015548;28;20306;-70
2023/06/27 00:19:57;;;;;;;8.40;3.60;;;17.80;1.00;;;;;;5014179;28;20200;-71
2023/06/27 00:22:23;;;;;;;4.83;3.10;;;17.80;1.00;;;;;;5016203;28;20550;-71
2023/06/27 00:24:49;;;;;;;4.37;3.80;;;17.70;1.00;;;;;;5015934;28;20415;-71
2023/06/27 00:27:15;;;;;;;2.87;2.60;;;17.70;1.00;;;;;;5015709;28;20549;-72
2023/06/27 00:29:41;;;;;;;8.17;3.80;;;17.70;1.00;;;;;;5014961;28;20207;-72
2023/06/27 00:32:07;;;;;;;5.10;2.80;;;17.70;1.00;;;;;;5014512;28;20411;-71
2023/06/27 00:34:32;;;;;;;3.70;3.40;;;17.70;1.00;;;;;;5014482;28;20602;-71
2023/06/27 00:36:58;;;;;;;3.20;2.80;;;17.70;1.00;;;;;;5014587;28;20423;-72
2023/06/27 00:39:23;;;;;;;3.00;2.80;;;17.70;1.00;;;;;;5016550;28;20261;-72
2023/06/27 00:41:49;;;;;;;4.50;3.20;;;17.60;1.00;;;;;;5015050;28;20175;-72
2023/06/27 00:44:14;;;;;;;3.73;3.43;;;17.60;1.00;;;;;;5015810;28;20195;-72
2023/06/27 00:46:41;;;;;;;3.03;2.73;;;17.60;1.00;;;;;;5014554;28;20180;-71
2023/06/27 00:49:08;;;;;;;4.00;3.13;;;17.60;1.00;;;;;;5015369;28;20207;-72
2023/06/27 00:51:34;;;;;;;3.27;2.70;;;17.60;1.00;;;;;;5016790;28;20411;-72
2023/06/27 00:54:00;;;;;;;3.73;3.10;;;17.60;1.00;;;;;;5021154;28;20415;-72
2023/06/27 00:56:27;;;;;;;4.13;2.93;;;17.50;1.00;;;;;;5016476;28;20789;-72
2023/06/27 00:58:59;;;;;;;3.10;2.67;;;17.50;1.00;;;;;;5014013;28;20223;-72
2023/06/27 01:01:25;;;;;;;3.40;3.10;;;17.60;1.00;;;;;;5014918;28;20782;-72
2023/06/27 01:03:51;;;;;;;2.70;2.50;;;17.60;1.00;;;;;;5014327;28;20468;-71
2023/06/27 01:06:45;;;;;;;3.57;3.27;;;17.60;1.00;;;;;;5014827;28;20433;-72
2023/06/27 01:09:24;;;;;;;3.73;3.10;;;17.50;1.00;;;;;;5014767;28;20493;-72
2023/06/27 01:12:09;;;;;;;5.30;3.10;;;17.50;1.00;;;;;;5014026;28;20435;-72
2023/06/27 01:14:36;;;;;;;4.37;3.30;;;17.50;1.00;;;;;;5014867;28;20409;-72
2023/06/27 01:17:02;;;;;;;3.90;2.70;;;17.50;1.00;;;;;;5014411;28;20417;-72
2023/06/27 01:19:30;;;;;;;4.67;3.50;;;17.40;1.00;;;;;;5014632;28;20493;-72
2023/06/27 01:22:02;;;;;;;4.90;3.03;;;17.40;1.00;;;;;;5013753;28;20494;-72
2023/06/27 01:24:28;;;;;;;2.73;2.20;;;17.30;1.00;;;;;;5014056;28;20407;-72
2023/06/27 01:26:55;;;;;;;3.73;3.40;;;17.30;1.00;;;;;;5014213;28;20419;-72
2023/06/27 01:29:20;;;;;;;4.67;3.27;;;17.30;1.00;;;;;;5014255;28;20484;-72
2023/06/27 01:31:53;;;;;;;3.07;2.77;;;17.30;1.00;;;;;;5013527;28;20423;-72
2023/06/27 01:34:23;;;;;;;5.00;3.30;;;17.30;1.00;;;;;;5013728;28;20172;-72
2023/06/27 01:37:09;;;;;;;5.63;2.70;;;17.30;1.00;;;;;;5013798;28;20549;-71
2023/06/27 01:39:53;;;;;;;2.77;2.20;;;17.30;1.00;;;;;;5014682;28;20426;-72
2023/06/27 01:42:23;;;;;;;2.33;2.00;;;17.30;1.00;;;;;;5014169;28;20399;-72
2023/06/27 01:44:50;;;;;;;3.93;2.80;;;17.30;1.00;;;;;;5013904;28;20414;-72
2023/06/27 01:47:16;;;;;;;4.77;2.60;;;17.40;1.00;;;;;;5013970;28;20461;-72
2023/06/27 01:49:42;;;;;;;3.60;2.73;;;17.40;1.00;;;;;;5013574;28;20790;-72
2023/06/27 01:52:14;;;;;;;3.70;2.87;;;17.40;1.00;;;;;;5017876;28;20422;-72
2023/06/27 01:54:40;;;;;;;2.97;2.53;;;17.40;1.00;;;;;;5013272;28;20172;-71
2023/06/27 01:57:07;;;;;;;3.70;2.90;;;17.40;1.00;;;;;;5013005;28;20781;-72
2023/06/27 01:59:32;;;;;;;3.37;2.60;;;17.40;1.00;;;;;;5013961;28;20450;-73
2023/06/27 02:01:58;;;;;;;5.40;3.53;;;17.30;1.00;;;;;;5018778;28;20904;-72
2023/06/27 02:04:23;;;;;;;3.70;3.13;;;17.30;1.00;;;;;;5014010;28;20176;-72
2023/06/27 02:06:49;;;;;;;3.53;2.77;;;17.30;1.00;;;;;;5012917;28;20225;-73
2023/06/27 02:09:14;;;;;;;3.23;2.60;;;17.40;1.00;;;;;;5014038;28;20281;-73
2023/06/27 02:11:40;;;;;;;3.23;2.90;;;17.40;1.00;;;;;;5015125;28;20729;-73
2023/06/27 02:14:05;;;;;;;3.03;2.40;;;17.40;1.00;;;;;;5014450;28;20534;-73
2023/06/27 02:16:31;;;;;;;3.13;2.83;;;17.40;1.00;;;;;;5015641;28;20183;-72
2023/06/27 02:18:56;;;;;;;6.73;2.87;;;17.40;1.00;;;;;;5012555;28;20694;-72
2023/06/27 02:21:22;;;;;;;4.50;2.80;;;17.50;1.00;;;;;;5012564;28;20183;-73
2023/06/27 02:23:47;;;;;;;4.93;3.00;;;17.40;1.00;;;;;;5014800;28;20186;-74
2023/06/27 02:26:13;;;;;;;4.03;3.00;;;17.40;1.00;;;;;;5013669;28;20180;-72
2023/06/27 02:28:38;;;;;;;5.80;3.10;;;17.50;1.00;;;;;;5014168;28;20305;-72
2023/06/27 02:31:04;;;;;;;6.17;2.43;;;17.40;1.00;;;;;;5017183;28;20538;-72
2023/06/27 02:33:30;;;;;;;7.10;2.70;;;17.50;1.00;;;;;;5012615;28;20531;-73
2023/06/27 02:35:56;;;;;;;4.00;3.07;;;17.50;1.00;;;;;;5016178;28;20171;-73
2023/06/27 02:38:21;;;;;;;3.70;2.30;;;17.50;1.00;;;;;;5017967;28;20438;-72
2023/06/27 02:40:47;;;;;;;4.33;2.80;;;17.50;1.00;;;;;;5013084;28;20179;-73
2023/06/27 02:43:12;;;;;;;4.23;2.40;;;17.50;1.00;;;;;;5012122;28;20172;-73
2023/06/27 02:45:38;;;;;;;3.90;2.60;;;17.50;1.00;;;;;;5016795;28;20258;-73
2023/06/27 02:48:04;;;;;;;5.60;3.07;;;17.50;1.00;;;;;;5013733;28;20286;-73
2023/06/27 02:50:30;;;;;;;3.33;2.40;;;17.40;1.00;;;;;;5012508;28;20168;-73
2023/06/27 02:52:55;;;;;;;2.93;2.53;;;17.40;1.00;;;;;;5011836;28;20469;-73
2023/06/27 02:55:21;;;;;;;3.83;2.50;;;17.40;1.00;;;;;;5013147;28;20190;-73
2023/06/27 02:57:46;;;;;;;6.23;3.37;;;17.30;1.00;;;;;;5014628;28;20176;-73
2023/06/27 03:00:12;;;;;;;4.73;2.80;;;17.40;1.00;;;;;;5015209;28;20191;-73
2023/06/27 03:02:37;;;;;;;2.93;2.43;;;17.40;1.00;;;;;;5017702;28;20270;-73
2023/06/27 03:05:03;;;;;;;4.67;2.87;;;17.40;1.00;;;;;;5016908;28;20188;-72
2023/06/27 03:07:29;;;;;;;3.03;2.53;;;17.40;1.00;;;;;;5012097;28;20749;-72
2023/06/27 03:09:54;;;;;;;4.03;2.90;;;17.40;1.00;;;;;;5012342;28;20433;-73
2023/06/27 03:12:20;;;;;;;8.03;2.70;;;17.40;1.00;;;;;;5015858;28;20207;-72
2023/06/27 03:14:45;;;;;;;3.33;2.63;;;17.40;1.00;;;;;;5016208;28;20208;-72
2023/06/27 03:17:11;;;;;;;3.90;2.97;;;17.40;1.00;;;;;;5017742;28;20179;-71
2023/06/27 03:19:36;;;;;;;3.10;2.77;;;17.40;1.00;;;;;;5016131;28;20260;-70
2023/06/27 03:22:02;;;;;;;3.50;2.23;;;17.30;1.00;;;;;;5017484;28;20184;-70
2023/06/27 03:24:28;;;;;;;3.50;2.60;;;17.30;1.00;;;;;;5015878;28;20642;-70
2023/06/27 03:26:53;;;;;;;4.97;3.10;;;17.30;1.00;;;;;;5015866;28;20418;-70
2023/06/27 03:29:19;;;;;;;3.60;2.67;;;17.30;1.00;;;;;;5015728;28;20274;-71
2023/06/27 03:31:44;;;;;;;3.73;3.13;;;17.30;1.00;;;;;;5015530;28;20184;-71
2023/06/27 03:34:10;;;;;;;4.00;3.00;;;17.30;1.00;;;;;;5017556;28;20187;-71
2023/06/27 03:36:35;;;;;;;2.67;2.47;;;17.30;1.00;;;;;;5019559;28;20186;-71
2023/06/27 03:39:01;;;;;;;3.80;2.80;;;17.30;1.00;;;;;;5021490;28;20661;-70
2023/06/27 03:41:27;;;;;;;3.20;2.03;;;17.30;1.00;;;;;;5016955;28;20552;-70
2023/06/27 03:43:53;;;;;;;6.00;2.10;;;17.30;1.00;;;;;;5017779;28;20419;-71
2023/06/27 03:46:18;;;;;;;3.40;2.77;;;17.30;1.00;;;;;;5019746;28;20175;-70
2023/06/27 03:48:44;;;;;;;7.20;3.80;;;17.30;1.00;;;;;;5019823;28;20474;-71
2023/06/27 03:51:09;;;;;;;6.03;2.97;;;17.30;1.00;;;;;;5016693;28;20175;-71
2023/06/27 03:53:35;;;;;;;3.70;1.90;;;17.30;1.00;;;;;;5015634;28;20176;-71
2023/06/27 03:56:01;;;;;;;4.80;3.10;;;17.30;1.00;;;;;;5015202;28;20180;-71
2023/06/27 03:58:27;;;;;;;4.70;2.60;;;17.20;1.00;;;;;;5016401;28;20219;-71
2023/06/27 04:00:53;;;;;;;12.57;3.10;;;17.30;1.00;;;;;;5015977;28;20504;-71
2023/06/27 04:03:20;;;;;;;5.00;2.80;;;17.30;1.00;;;;;;5016313;28;20314;-72
2023/06/27 04:05:45;;;;;;;3.60;3.20;;;17.30;1.00;;;;;;5015276;28;20912;-73
2023/06/27 04:08:11;;;;;;;3.30;2.67;;;17.30;1.00;;;;;;5015982;28;20552;-71
2023/06/27 04:10:37;;;;;;;4.03;2.77;;;17.30;1.00;;;;;;5015638;28;20226;-71
2023/06/27 04:13:03;;;;;;;5.20;2.67;;;17.40;1.00;;;;;;5017870;28;20267;-71
2023/06/27 04:15:29;;;;;;;3.20;2.17;;;17.40;1.00;;;;;;5015748;28;20495;-70
2023/06/27 04:17:54;;;;;;;4.00;3.60;;;17.40;1.00;;;;;;5015166;28;20259;-71
2023/06/27 04:20:20;;;;;;;2.53;2.17;;;17.40;1.00;;;;;;5015200;28;20216;-71
2023/06/27 04:22:52;;;;;;;5.10;2.60;;;17.40;1.00;;;;;;5014189;28;20187;-71
2023/06/27 04:25:17;;;;;;;6.30;2.83;;;17.40;1.00;;;;;;5015167;28;20185;-71
2023/06/27 04:27:43;;;;;;;3.13;2.83;;;17.40;1.00;;;;;;5016460;28;20945;-71
2023/06/27 04:30:09;;;;;;;3.13;2.70;;;17.50;1.00;;;;;;5015035;28;20187;-71
2023/06/27 04:32:37;;;;;;;3.40;2.90;;;17.50;1.00;;;;;;5014589;28;20180;-73
2023/06/27 04:35:03;;;;;;;4.97;2.43;;;17.50;1.20;;;;;;5014568;28;20418;-72
2023/06/27 04:37:29;;;;;;;5.27;3.00;;;17.50;1.00;;;;;;5014323;28;20846;-73
2023/06/27 04:39:54;;;;;;;4.93;2.47;;;17.50;1.00;;;;;;5014428;28;20492;-72
2023/06/27 04:42:20;;;;;;;3.00;2.70;;;17.60;1.00;;;;;;5014019;28;20211;-72
2023/06/27 04:44:45;;;;;;;3.30;2.80;;;17.60;1.00;;;;;;5017236;28;20294;-72
2023/06/27 04:47:11;;;;;;;3.00;2.30;;;17.60;1.00;;;;;;5014326;28;20188;-72
2023/06/27 04:49:36;;;;;;;3.50;2.60;;;17.60;1.00;;;;;;5014114;28;20769;-72
2023/06/27 04:52:02;;;;;;;3.60;2.67;;;17.70;1.00;;;;;;5013769;28;20176;-72
2023/06/27 04:54:28;;;;;;;3.43;2.70;;;17.70;1.00;;;;;;5014132;28;20175;-69
2023/06/27 04:56:53;;;;;;;3.67;2.83;;;17.70;1.00;;;;;;5015933;28;20461;-70
2023/06/27 04:59:19;;;;;;;3.60;2.70;;;17.60;1.00;;;;;;5015519;28;20219;-70
2023/06/27 05:01:45;;;;;;;5.13;3.30;;;17.70;1.00;;;;;;5014866;28;20656;-70
2023/06/27 05:04:11;;;;;;;4.53;2.60;;;17.80;1.00;;;;;;4994576;28;20255;-69
2023/06/27 05:06:36;;;;;;;5.93;2.90;;;17.90;1.00;;;;;;4994771;28;20424;-69
2023/06/27 05:09:03;;;;;;;9.33;3.63;;;17.90;1.00;;;;;;4994962;28;20212;-69
2023/06/27 05:11:30;;;;;;;5.23;3.03;;;18.00;1.00;;;;;;4994956;28;20219;-69
2023/06/27 05:13:56;;;;;;;3.40;2.83;;;17.90;1.00;;;;;;4995904;28;20419;-68
2023/06/27 05:16:22;;;;;;;3.50;3.20;;;17.90;1.00;;;;;;4995140;28;20420;-70
2023/06/27 05:18:48;;;;;;;4.83;3.67;;;18.00;1.00;;;;;;4994728;28;20435;-70
2023/06/27 05:21:13;;;;;;;4.43;2.77;;;18.00;1.00;;;;;;4994539;28;20514;-70
2023/06/27 05:23:39;;;;;;;5.03;3.77;;;18.10;1.00;;;;;;4995737;28;20648;-69
2023/06/27 05:26:04;;;;;;;8.07;3.80;;;18.10;1.00;;;;;;4995318;28;20310;-72
2023/06/27 05:28:30;;;;;;;6.00;3.67;;;18.20;1.00;;;;;;4997201;28;20215;-72
2023/06/27 05:30:57;;;;;;;6.03;3.27;;;18.30;1.00;;;;;;4994805;28;20179;-71
2023/06/27 05:33:22;;;;;;;4.80;3.07;;;18.40;1.00;;;;;;4992287;28;20180;-71
2023/06/27 05:35:48;;;;;;;8.50;3.70;;;18.40;1.00;;;;;;4993732;28;20474;-71
2023/06/27 05:38:14;;;;;;;4.10;3.33;;;18.50;1.00;;;;;;4994377;28;20208;-73
2023/06/27 05:40:39;;;;;;;3.67;3.03;;;18.50;1.00;;;;;;4994239;28;20606;-71
2023/06/27 05:43:05;;;;;;;4.70;2.80;;;18.60;1.00;;;;;;4994081;28;20552;-71
2023/06/27 05:45:30;;;;;;;7.50;4.00;;;18.70;1.00;;;;;;4994131;28;20203;-71
2023/06/27 05:47:56;;;;;;;4.10;2.97;;;18.70;1.00;;;;;;4994621;28;20212;-70
2023/06/27 05:50:22;;;;;;;4.20;3.63;;;18.80;1.00;;;;;;4995286;28;20223;-70
2023/06/27 05:52:48;;;;;;;4.03;3.40;;;19.00;1.00;;;;;;4994392;28;20223;-70
2023/06/27 05:55:13;;;;;;;4.00;3.20;;;19.00;1.00;;;;;;4995093;28;20212;-69
2023/06/27 05:57:39;;;;;;;8.50;3.23;;;19.00;1.00;;;;;;4993930;28;20470;-70
2023/06/27 06:00:10;;;;;;;4.37;3.40;;;19.00;1.00;;;;;;5001608;28;20203;-70
2023/06/27 06:02:37;;;;;;;4.10;3.30;;;19.00;1.00;;;;;;5025297;28;20588;-69
2023/06/27 06:05:03;;;;;;;5.33;2.97;;;19.20;1.00;;;;;;5034104;28;20414;-70
2023/06/27 06:07:29;;;;;;;5.40;4.10;;;19.40;1.00;;;;;;5013839;28;20466;-71
2023/06/27 06:09:54;;;;;;;6.07;3.10;;;19.60;1.00;;;;;;5012822;28;20549;-70
2023/06/27 06:12:20;;;;;;;3.30;3.00;;;19.80;1.00;;;;;;5013115;28;20180;-71
2023/06/27 06:14:46;;;;;;;3.60;3.30;;;19.90;1.00;;;;;;5013376;28;20180;-70
2023/06/27 06:17:11;;;;;;;4.50;3.80;;;20.10;1.00;;;;;;5013525;28;20231;-70
2023/06/27 06:19:37;;;;;;;4.83;3.10;;;20.40;1.00;;;;;;5013404;28;20681;-70
2023/06/27 06:22:02;;;;;;;5.00;3.70;;;20.60;1.00;;;;;;5013774;28;20512;-71
2023/06/27 06:24:28;;;;;;;6.57;3.43;;;21.00;1.00;;;;;;5013666;28;20259;-71
2023/06/27 06:26:53;;;;;;;5.40;3.67;;;22.10;1.00;;;;;;5014064;28;20180;-70
2023/06/27 06:29:19;;;;;;;8.80;4.10;;;22.70;1.00;;;;;;5013525;28;20208;-72
2023/06/27 06:31:45;;;;;;;4.77;3.93;;;23.60;1.00;;;;;;5012594;28;20668;-70
2023/06/27 06:34:11;;;;;;;4.80;4.27;;;23.80;1.00;;;;;;5012923;28;20335;-70
2023/06/27 06:36:37;;;;;;;3.97;3.67;;;24.20;1.00;;;;;;5015481;28;20450;-70
2023/06/27 06:39:06;;;;;;;4.10;3.80;;;24.10;1.00;;;;;;5014412;28;20525;-69
2023/06/27 06:41:34;;;;;;;6.10;4.27;;;24.00;1.00;;;;;;5014384;28;20303;-71
2023/06/27 06:44:00;;;;;;;4.10;3.50;;;23.70;1.00;;;;;;5013518;28;20762;-70
2023/06/27 06:46:25;;;;;;;6.07;3.73;;;23.20;1.00;;;;;;5012989;28;20429;-70
2023/06/27 06:48:52;;;;;;;12.83;4.23;;;23.40;1.00;;;;;;5011887;28;20211;-69
2023/06/27 06:51:17;;;;;;;4.43;3.77;;;23.30;1.00;;;;;;5013936;28;20235;-71
2023/06/27 06:53:43;;;;;;;9.17;3.97;;;23.50;1.00;;;;;;5013329;28;20431;-68
2023/06/27 06:56:08;;;;;;;9.77;5.00;;;23.80;1.00;;;;;;5013282;28;20167;-72
2023/06/27 06:58:34;;;;;;;4.37;3.90;;;24.50;1.00;;;;;;5013027;28;20707;-68
2023/06/27 07:00:59;;;;;;;13.33;4.77;;;25.10;1.00;;;;;;5012811;28;20194;-67
2023/06/27 07:03:25;;;;;;;19.87;7.97;;;26.10;1.00;;;;;;5013596;28;20582;-68
2023/06/27 07:05:50;;;;;;;7.57;4.40;;;27.60;1.00;;;;;;5013185;28;20684;-67
2023/06/27 07:08:16;;;;;;;5.20;3.63;;;28.20;1.00;;;;;;5012278;28;20235;-67
2023/06/27 07:10:41;;;;;;;4.20;3.80;;;29.10;1.00;;;;;;5012661;28;20538;-68
2023/06/27 07:13:07;;;;;;;4.93;3.43;;;29.20;1.00;;;;;;5012687;28;20657;-69
2023/06/27 07:15:33;;;;;;;3.90;3.60;;;29.20;1.00;;;;;;5012987;28;20186;-69
2023/06/27 07:17:59;;;;;;;6.00;3.87;;;29.70;1.00;;;;;;5012915;28;20188;-70
2023/06/27 07:20:25;;;;;;;5.30;3.60;;;30.30;1.00;;;;;;5012476;28;20477;-68
2023/06/27 07:22:51;;;;;;;4.20;3.90;;;32.20;1.00;;;;;;5012531;28;20179;-67
2023/06/27 07:25:17;;;;;;;4.37;3.97;;;32.60;1.00;;;;;;5013134;28;20318;-67
2023/06/27 07:27:43;;;;;;;5.20;3.93;;;33.10;1.00;;;;;;5012421;28;20548;-67
2023/06/27 07:30:09;;;;;;;4.80;3.80;;;34.00;1.00;;;;;;5012568;28;20187;-68
2023/06/27 07:32:34;;;;;;;3.90;3.60;;;35.00;1.00;;;;;;5012096;28;20419;-68
2023/06/27 07:35:00;;;;;;;7.63;4.57;;;35.30;1.00;;;;;;5013142;28;20485;-68
2023/06/27 07:37:26;;;;;;;4.20;3.70;;;34.70;1.00;;;;;;5012701;28;20674;-68
2023/06/27 07:39:51;;;;;;;4.40;3.83;;;34.50;1.00;;;;;;5012131;28;20196;-69
2023/06/27 07:42:17;;;;;;;4.67;4.13;;;33.90;1.00;;;;;;5012343;28;20184;-68
2023/06/27 07:44:44;;;;;;;3.97;3.57;;;33.60;1.00;;;;;;5012248;28;20176;-67
2023/06/27 07:47:12;;;;;;;10.27;5.53;;;32.30;1.00;;;;;;5012148;28;20192;-67
2023/06/27 07:49:37;;;;;;;5.30;4.00;;;32.20;1.00;;;;;;5012619;28;20967;-68
2023/06/27 07:52:07;;;;;;;4.60;4.17;;;33.50;1.00;;;;;;5011801;28;20549;-68
2023/06/27 07:54:33;;;;;;;3.73;3.43;;;33.90;1.00;;;;;;5012563;28;20184;-68
2023/06/27 07:56:59;;;;;;;5.17;3.50;;;34.20;1.00;;;;;;5012690;28;20837;-68
2023/06/27 07:59:24;;;;;;;6.03;3.97;;;34.90;1.00;;;;;;5038753;23;20502;-68
2023/06/27 08:01:50;;;;;;;4.70;3.53;;;35.60;1.00;;;;;;5014712;28;20230;-68
2023/06/27 08:04:15;;;;;;;8.40;3.70;;;35.40;1.00;;;;;;5015947;28;20176;-67
2023/06/27 08:06:42;;;;;;;7.70;4.40;;;36.00;1.00;;;;;;5015519;28;20183;-68
2023/06/27 08:09:08;;;;;;;4.50;4.10;;;35.70;1.00;;;;;;5014818;28;20227;-68
2023/06/27 08:11:33;;;;;;;6.87;3.80;;;35.90;1.00;;;;;;5014988;28;20802;-68
2023/06/27 08:13:59;;;;;;;4.33;3.93;;;36.70;1.00;;;;;;5015186;28;20418;-68
2023/06/27 08:16:25;;;;;;;8.60;4.50;;;36.80;1.00;;;;;;5016471;28;20177;-68
2023/06/27 08:18:50;;;;;;;5.77;4.20;;;36.70;1.00;;;;;;5015087;28;20195;-69
2023/06/27 08:21:16;;;;;;;4.70;3.77;;;35.60;1.00;;;;;;5014827;28;20184;-67
2023/06/27 08:23:42;;;;;;;9.60;4.53;;;35.20;1.00;;;;;;5014902;28;20196;-67
2023/06/27 08:26:08;;;;;;;4.60;4.20;;;35.70;1.00;;;;;;5015363;28;20203;-67
2023/06/27 08:28:33;;;;;;;4.27;3.87;;;36.00;1.00;;;;;;5014637;28;20494;-68
2023/06/27 08:30:59;;;;;;;4.27;3.57;;;37.20;1.00;;;;;;5015276;28;20179;-68
2023/06/27 08:33:25;;;;;;;7.80;4.33;;;36.50;1.00;;;;;;5013989;28;20191;-69
2023/06/27 08:35:50;;;;;;;4.33;3.93;;;37.00;1.00;;;;;;5014950;28;20219;-68
2023/06/27 08:38:17;;;;;;;6.20;3.63;;;37.40;1.00;;;;;;5015159;28;20204;-67
2023/06/27 08:40:44;;;;;;;4.90;3.73;;;38.00;1.00;;;;;;5015029;28;20180;-68
2023/06/27 08:43:10;;;;;;;4.90;4.00;;;38.70;1.00;;;;;;5014794;28;20904;-68
2023/06/27 08:45:37;;;;;;;8.80;4.57;;;38.50;1.00;;;;;;5015303;28;21883;-68
2023/06/27 08:48:06;;;;;;;4.53;4.20;;;38.80;1.00;;;;;;5015428;28;20956;-69
2023/06/27 08:50:34;;;;;;;4.27;3.97;;;37.40;1.00;;;;;;5014440;28;20621;-69
2023/06/27 08:53:03;;;;;;;4.10;3.73;;;37.00;1.00;;;;;;5014246;28;20465;-68
2023/06/27 08:55:57;;;;;;;4.37;3.97;;;36.40;1.00;;;;;;5015537;28;20845;-68
2023/06/27 08:58:27;;;;;;;8.90;4.67;;;35.70;1.00;;;;;;5015087;28;20512;-67
2023/06/27 09:00:54;;;;;;;6.33;4.10;;;36.00;1.00;;;;;;5013354;28;20473;-68
2023/06/27 09:03:20;;;;;;;3.70;3.40;;;35.40;1.00;;;;;;5014838;28;20734;-68
2023/06/27 09:05:47;;;;;;;3.70;3.40;;;32.30;1.00;;;;;;5014565;28;20906;-67
2023/06/27 09:08:13;;;;;;;4.10;3.80;;;30.60;1.00;;;;;;5013856;28;20458;-67
2023/06/27 09:10:39;;;;;;;4.50;4.20;;;28.90;1.00;;;;;;5013629;28;20525;-67
2023/06/27 09:13:06;;;;;;;5.70;3.80;;;27.50;1.00;;;;;;5014382;28;20183;-68
2023/06/27 09:15:32;;;;;;;5.23;3.83;;;26.90;1.00;;;;;;5014756;28;20415;-67
2023/06/27 09:17:58;;;;;;;4.03;3.73;;;26.10;1.00;;;;;;5015766;28;20430;-67
2023/06/27 09:20:23;;;;;;;7.70;3.57;;;25.80;1.00;;;;;;5014304;28;20191;-67
2023/06/27 09:22:50;;;;;;;4.10;3.70;;;26.20;1.00;;;;;;5014152;28;20425;-67
2023/06/27 09:25:19;;;;;;;4.40;4.00;;;26.00;1.00;;;;;;5014093;28;20259;-67
2023/06/27 09:27:45;;;;;;;5.63;3.97;;;26.80;1.00;;;;;;5014301;28;20529;-67
2023/06/27 09:30:11;;;;;;;8.10;4.30;;;27.50;1.00;;;;;;5013715;28;20541;-68
2023/06/27 09:32:55;;;;;;;4.60;4.20;;;27.50;1.00;;;;;;5014042;28;20411;-67
2023/06/27 09:35:23;;;;;;;8.07;4.50;;;27.40;1.00;;;;;;5014221;28;20411;-67
2023/06/27 09:37:49;;;;;;;4.30;3.90;;;27.80;1.00;;;;;;5013710;28;20418;-68
2023/06/27 09:40:27;;;;;;;4.73;3.47;;;27.70;1.00;;;;;;5013754;28;20458;-68
2023/06/27 09:42:55;;;;;;;4.30;3.90;;;27.30;1.00;;;;;;5012817;28;20454;-68
2023/06/27 09:45:23;;;;;;;5.73;4.10;;;26.80;1.00;;;;;;5013676;28;20414;-68
2023/06/27 09:47:50;;;;;;;11.23;3.53;;;26.90;1.00;;;;;;5012724;28;20474;-67
2023/06/27 09:50:16;;;;;;;5.43;4.40;;;26.60;1.00;;;;;;5013710;28;20518;-67
2023/06/27 09:52:56;;;;;;;3.67;3.37;;;26.60;1.00;;;;;;5013420;28;20462;-68
2023/06/27 09:55:22;;;;;;;4.43;3.87;;;26.70;1.00;;;;;;5014566;28;20425;-67
2023/06/27 09:57:48;;;;;;;5.80;3.90;;;26.90;1.00;;;;;;5013655;28;20864;-68
2023/06/27 10:00:17;;;;;;;5.67;3.93;;;26.80;1.00;;;;;;5013629;28;20289;-67
2023/06/27 10:02:47;;;;;;;8.33;5.20;;;27.10;1.00;;;;;;5012913;28;20514;-67
2023/06/27 10:05:12;;;;;;;7.57;4.67;;;27.00;1.00;;;;;;5013606;28;20418;-67
2023/06/27 10:07:39;;;;;;;4.03;3.47;;;27.30;1.00;;;;;;5013381;28;20517;-67
2023/06/27 10:10:06;;;;;;;6.70;4.60;;;27.50;1.00;;;;;;5013427;28;20188;-68
2023/06/27 10:12:32;;;;;;;5.53;4.60;;;27.30;1.00;;;;;;5012789;28;20411;-68
2023/06/27 10:14:58;;;;;;;4.30;4.00;;;27.30;1.00;;;;;;5013263;28;20865;-68
2023/06/27 10:17:25;;;;;;;5.33;4.63;;;27.20;1.00;;;;;;5012799;28;20421;-67
2023/06/27 10:19:51;;;;;;;5.17;4.60;;;27.30;1.00;;;;;;5015306;28;20436;-67
2023/06/27 10:22:21;;;;;;;5.17;4.77;;;27.60;1.00;;;;;;5012980;28;20464;-67
2023/06/27 10:24:51;;;;;;;4.27;3.97;;;27.60;1.00;;;;;;5013078;28;20926;-67
2023/06/27 10:27:25;;;;;;;5.50;4.60;;;27.50;1.00;;;;;;5013414;28;20568;-67
2023/06/27 10:29:50;;;;;;;12.93;4.27;;;27.60;1.00;;;;;;5012610;28;20435;-68
2023/06/27 10:32:20;;;;;;;5.03;4.47;;;27.30;1.00;;;;;;5013197;28;20419;-67
2023/06/27 10:34:46;;;;;;;4.67;4.27;;;27.30;1.00;;;;;;5013335;28;20176;-68
2023/06/27 10:37:24;;;;;;;6.43;4.70;;;27.60;1.00;;;;;;5011734;28;20425;-67
2023/06/27 10:40:00;;;;;;;4.37;4.07;;;27.70;1.00;;;;;;5013373;28;20199;-68
2023/06/27 10:42:31;;;;;;;4.30;4.00;;;27.70;1.00;;;;;;5012278;28;20929;-67
2023/06/27 10:44:59;;;;;;;5.70;4.80;;;27.40;1.00;;;;;;5012983;28;20426;-68
2023/06/27 10:47:33;;;;;;;4.80;4.40;;;27.30;1.00;;;;;;5007690;28;20518;-67
2023/06/27 10:50:09;;;;;;;4.10;3.70;;;26.90;1.00;;;;;;4993790;28;20427;-67
2023/06/27 10:52:35;;;;;;;4.97;4.57;;;27.00;1.00;;;;;;5012303;28;20415;-68
2023/06/27 10:55:19;;;;;;;4.57;4.03;;;27.50;1.00;;;;;;5006345;28;20498;-67
2023/06/27 10:57:48;;;;;;;4.57;4.17;;;27.50;1.00;;;;;;5011476;28;20419;-68
2023/06/27 11:00:24;;;;;;;4.60;4.23;;;27.30;1.00;;;;;;5012401;28;20788;-67
2023/06/27 11:02:53;;;;;;;10.90;4.80;;;27.30;1.00;;;;;;5012640;28;20506;-67
2023/06/27 11:05:19;;;;;;;5.50;4.47;;;27.30;1.00;;;;;;5010963;28;20798;-68
2023/06/27 11:07:58;;;;;;;8.30;4.70;;;27.10;1.00;;;;;;4993684;28;20470;-68
2023/06/27 11:10:26;;;;;;;4.40;4.00;;;27.30;1.00;;;;;;4993165;28;20176;-67
2023/06/27 11:13:15;;;;;;;4.73;4.43;;;27.50;1.00;;;;;;4992323;28;20440;-67
2023/06/27 11:15:43;;;;;;;7.50;5.43;;;27.50;1.00;;;;;;5011176;28;20426;-67
2023/06/27 11:18:11;;;;;;;7.20;4.30;;;27.50;1.00;;;;;;5012912;28;20829;-66
2023/06/27 11:20:37;;;;;;;5.87;4.00;;;27.20;1.00;;;;;;5012741;28;20927;-67
2023/06/27 11:23:03;;;;;;;5.93;4.67;;;26.80;1.00;;;;;;5012996;28;20423;-68
2023/06/27 11:25:38;;;;;;;5.50;4.60;;;27.20;1.00;;;;;;5012772;28;20406;-67
2023/06/27 11:28:04;;;;;;;3.87;3.60;;;27.40;1.00;;;;;;5013066;28;20454;-67
2023/06/27 11:30:31;;;;;;;5.03;4.33;;;27.50;1.00;;;;;;5013518;28;20411;-68
2023/06/27 11:32:57;;;;;;;3.90;3.60;;;27.60;1.00;;;;;;5014008;28;20407;-68
2023/06/27 11:35:23;;;;;;;6.00;4.70;;;27.70;1.00;;;;;;5017739;28;20425;-69
2023/06/27 11:37:56;;;;;;;4.27;3.70;;;27.80;1.00;;;;;;5015734;28;20680;-70
2023/06/27 11:40:22;;;;;;;4.83;4.30;;;28.00;1.00;;;;;;4998037;28;20431;-70
2023/06/27 11:42:48;;;;;;;4.80;4.07;;;28.10;1.00;;;;;;4997102;28;20435;-71
2023/06/27 11:45:13;;;;;;;5.67;4.87;;;28.30;1.00;;;;;;4996537;28;20908;-71
2023/06/27 11:47:39;;;;;;;7.20;4.23;;;28.10;1.00;;;;;;5015449;28;20199;-70
2023/06/27 11:50:10;;;;;;;4.70;4.30;;;27.60;1.00;;;;;;5017801;28;20291;-71
2023/06/27 11:52:37;;;;;;;5.43;4.43;;;27.60;1.00;;;;;;5016123;28;20419;-71
2023/06/27 11:55:04;;;;;;;4.17;3.87;;;27.30;1.00;;;;;;5017574;28;20417;-72
2023/06/27 11:57:47;;;;;;;6.13;4.73;;;27.20;1.00;;;;;;5015826;28;20485;-71
2023/06/27 12:00:25;;;;;;;5.20;4.80;;;27.60;1.00;;;;;;5014379;28;20462;-72
2023/06/27 12:02:52;;;;;;;3.80;3.50;;;27.20;1.00;;;;;;5014453;28;20454;-71
2023/06/27 12:05:20;;;;;;;4.90;4.50;;;26.60;1.00;;;;;;5017242;28;20620;-71
2023/06/27 12:08:01;;;;;;;4.10;3.83;;;27.30;1.00;;;;;;5016251;28;20958;-71
2023/06/27 12:10:32;;;;;;;4.77;4.37;;;27.70;1.00;;;;;;5015754;28;20500;-72
2023/06/27 12:12:58;;;;;;;5.17;4.57;;;27.60;1.00;;;;;;5015465;28;20415;-71
2023/06/27 12:15:23;;;;;;;4.10;3.80;;;27.50;1.00;;;;;;5016534;28;20777;-72
2023/06/27 12:18:00;;;;;;;5.30;4.80;;;27.50;1.00;;;;;;5014340;28;20423;-72
2023/06/27 12:20:27;;;;;;;8.27;4.60;;;27.60;1.00;;;;;;5014790;28;20183;-73
2023/06/27 12:22:52;;;;;;;5.60;4.90;;;27.60;1.00;;;;;;5013201;28;20431;-69
2023/06/27 12:25:18;;;;;;;4.43;4.00;;;27.20;1.00;;;;;;5017381;28;20442;-69
2023/06/27 12:27:43;;;;;;;9.13;4.73;;;27.20;1.00;;;;;;5015090;28;20543;-70
2023/06/27 12:30:11;;;;;;;4.93;4.53;;;27.30;1.00;;;;;;5014490;28;20192;-73
2023/06/27 12:32:38;;;;;;;4.23;3.93;;;27.30;1.00;;;;;;5016037;28;20645;-69
2023/06/27 12:35:05;;;;;;;4.57;4.27;;;27.20;1.00;;;;;;5015299;28;20403;-70
2023/06/27 12:37:33;;;;;;;4.27;3.97;;;26.90;1.00;;;;;;5014655;28;20407;-70
2023/06/27 12:40:00;;;;;;;4.80;4.40;;;26.90;1.00;;;;;;5016823;28;20443;-70
2023/06/27 12:42:25;;;;;;;4.07;3.67;;;26.60;1.00;;;;;;5007614;28;20418;-70
2023/06/27 12:44:54;;;;;;;4.10;3.70;;;25.90;1.00;;;;;;5015205;28;20955;-70
2023/06/27 12:47:20;;;;;;;5.17;4.67;;;26.10;1.00;;;;;;5016029;28;20174;-71
2023/06/27 12:49:45;;;;;;;6.00;5.40;;;26.20;1.00;;;;;;5015326;28;20439;-71
2023/06/27 12:52:11;;;;;;;4.97;4.57;;;25.80;1.00;;;;;;5016960;28;20172;-71
2023/06/27 12:54:36;;;;;;;4.70;4.30;;;25.60;1.00;;;;;;5014741;28;20264;-71
2023/06/27 12:57:02;;;;;;;5.47;4.90;;;25.30;1.00;;;;;;5014020;28;20219;-70